createdAt,value
2019-03-20T00:02:29.012Z,91.25
2019-03-20T00:05:05.488Z,90.10
2019-03-20T00:07:39.142Z,80.30
2019-03-20T00:10:13.090Z,67.20
2019-03-20T00:12:49.406Z,72.40
2019-03-20T00:15:22.925Z,68.07
2019-03-20T00:17:56.415Z,85.15
2019-03-20T00:20:29.523Z,91.28
2019-03-20T00:23:02.638Z,83.42
2019-03-20T00:25:36.953Z,76.72
2019-03-20T00:28:10.351Z,83.35
2019-03-20T00:30:43.616Z,82.92
2019-03-20T00:33:17.015Z,82.05
2019-03-20T00:35:55.248Z,85.97
2019-03-20T00:38:28.980Z,99.65
2019-03-20T00:41:02.026Z,97.08
2019-03-20T00:43:39.869Z,79.75
2019-03-20T00:46:12.663Z,49.00
2019-03-20T00:48:45.683Z,47.25
2019-03-20T00:51:18.620Z,58.30
2019-03-20T00:53:51.760Z,58.00
2019-03-20T00:56:25.051Z,57.78
2019-03-20T00:58:58.228Z,34.00
2019-03-20T01:01:32.026Z,49.63
2019-03-20T01:04:05.418Z,67.62
2019-03-20T01:06:38.514Z,86.97
2019-03-20T01:09:11.534Z,77.05
2019-03-20T01:11:44.405Z,70.42
2019-03-20T01:14:17.157Z,82.35
2019-03-20T01:16:50.052Z,74.42
2019-03-20T01:19:22.919Z,83.82
2019-03-20T01:21:56.074Z,78.02
2019-03-20T01:24:28.776Z,81.08
2019-03-20T01:27:02.339Z,79.37
2019-03-20T01:29:35.632Z,77.92
2019-03-20T01:32:28.383Z,61.33
2019-03-20T01:35:01.247Z,65.25
2019-03-20T01:37:34.454Z,76.90
2019-03-20T01:40:08.671Z,72.82
2019-03-20T01:42:41.646Z,78.42
2019-03-20T01:45:14.647Z,91.28
2019-03-20T01:47:47.921Z,94.67
2019-03-20T01:50:24.031Z,97.15
2019-03-20T01:52:57.432Z,98.85
2019-03-20T01:55:31.487Z,98.55
2019-03-20T01:58:11.706Z,99.03
2019-03-20T02:00:44.705Z,102.97
2019-03-20T02:03:18.581Z,103.60
2019-03-20T02:05:52.045Z,95.45
2019-03-20T02:08:28.219Z,96.45
2019-03-20T02:11:01.338Z,92.65
2019-03-20T02:13:34.645Z,96.02
2019-03-20T02:16:08.067Z,100.45
2019-03-20T02:18:40.813Z,89.22
2019-03-20T02:21:14.168Z,95.17
2019-03-20T02:23:46.928Z,92.02
2019-03-20T02:26:20.578Z,100.58
2019-03-20T02:28:53.455Z,101.27
2019-03-20T02:31:26.611Z,90.92
2019-03-20T02:34:00.454Z,105.90
2019-03-20T02:36:34.300Z,108.78
2019-03-20T02:39:08.650Z,105.05
2019-03-20T02:41:42.178Z,105.92
2019-03-20T02:44:15.712Z,84.07
2019-03-20T02:46:48.815Z,102.65
2019-03-20T02:49:21.801Z,103.07
2019-03-20T02:51:54.836Z,99.55
2019-03-20T02:54:27.783Z,94.85
2019-03-20T02:57:01.000Z,100.00
2019-03-20T02:59:34.490Z,90.45
2019-03-20T03:02:09.031Z,86.92
2019-03-20T03:04:42.124Z,80.85
2019-03-20T03:07:15.426Z,83.90
2019-03-20T03:09:48.332Z,88.17
2019-03-20T03:12:21.763Z,93.62
2019-03-20T03:14:54.609Z,91.87
2019-03-20T03:17:28.016Z,96.35
2019-03-20T03:20:00.795Z,98.12
2019-03-20T03:22:34.912Z,96.30
2019-03-20T03:25:09.631Z,102.65
2019-03-20T03:27:43.047Z,102.22
2019-03-20T03:30:17.843Z,100.18
2019-03-20T03:32:53.968Z,98.42
2019-03-20T03:35:31.659Z,92.37
2019-03-20T03:38:05.040Z,100.55
2019-03-20T03:40:38.283Z,100.62
2019-03-20T03:43:11.138Z,102.40
2019-03-20T03:45:47.408Z,112.17
2019-03-20T03:48:20.419Z,106.45
2019-03-20T03:50:54.480Z,108.15
2019-03-20T03:53:27.612Z,108.30
2019-03-20T03:56:02.047Z,106.37
2019-03-20T03:58:35.517Z,111.72
2019-03-20T04:01:08.545Z,119.62
2019-03-20T04:03:41.518Z,104.58
2019-03-20T04:06:14.441Z,113.55
2019-03-20T04:08:50.219Z,109.67
2019-03-20T04:11:23.177Z,115.72
2019-03-20T04:13:56.517Z,115.72
2019-03-20T04:16:29.773Z,112.45
2019-03-20T04:19:04.120Z,114.12
2019-03-20T04:21:37.162Z,121.92
2019-03-20T04:24:10.385Z,122.25
2019-03-20T04:26:43.591Z,115.92
2019-03-20T04:29:16.545Z,113.77
2019-03-20T04:31:49.582Z,114.22
2019-03-20T04:34:23.399Z,122.87
2019-03-20T04:36:56.442Z,124.95
2019-03-20T04:39:30.204Z,123.18
2019-03-20T04:42:03.124Z,121.20
2019-03-20T04:44:36.176Z,119.95
2019-03-20T04:47:09.619Z,120.87
2019-03-20T04:49:42.360Z,123.00
2019-03-20T04:52:15.368Z,116.17
2019-03-20T04:54:48.332Z,109.78
2019-03-20T04:57:21.543Z,111.12
2019-03-20T04:59:54.721Z,110.12
2019-03-20T05:02:27.816Z,106.27
2019-03-20T05:05:01.703Z,103.87
2019-03-20T05:07:34.459Z,99.30
2019-03-20T05:10:09.412Z,102.82
2019-03-20T05:12:42.525Z,100.42
2019-03-20T05:15:15.763Z,98.65
2019-03-20T05:17:48.642Z,105.65
2019-03-20T05:20:25.342Z,106.03
2019-03-20T05:22:59.070Z,98.33
2019-03-20T05:25:32.343Z,100.53
2019-03-20T05:28:05.223Z,99.45
2019-03-20T05:30:37.974Z,96.82
2019-03-20T05:33:11.266Z,98.42
2019-03-20T05:35:44.828Z,99.50
2019-03-20T05:38:18.222Z,101.97
2019-03-20T05:40:52.524Z,91.30
2019-03-20T05:43:25.958Z,96.55
2019-03-20T05:46:00.451Z,74.15
2019-03-20T05:48:33.203Z,99.07
2019-03-20T05:51:09.493Z,96.08
2019-03-20T05:53:55.980Z,95.30
2019-03-20T05:56:28.893Z,87.62
2019-03-20T05:59:03.078Z,83.33
2019-03-20T06:01:35.994Z,74.97
2019-03-20T06:04:09.886Z,78.72
2019-03-20T06:07:02.791Z,78.42
2019-03-20T06:09:35.667Z,79.80
2019-03-20T06:12:09.092Z,79.00
2019-03-20T06:14:41.989Z,76.47
2019-03-20T06:17:15.054Z,76.02
2019-03-20T06:19:47.690Z,67.67
2019-03-20T06:22:22.504Z,75.62
2019-03-20T06:24:54.961Z,73.90
2019-03-20T06:27:27.735Z,70.50
2019-03-20T06:30:00.466Z,79.05
2019-03-20T06:32:38.991Z,77.47
2019-03-20T06:35:12.395Z,73.28
2019-03-20T06:37:45.440Z,79.97
2019-03-20T06:40:18.768Z,77.90
2019-03-20T06:42:52.129Z,79.10
2019-03-20T06:45:25.697Z,71.50
2019-03-20T06:47:59.651Z,78.22
2019-03-20T06:50:32.608Z,72.12
2019-03-20T06:53:05.632Z,74.58
2019-03-20T06:55:38.562Z,72.32
2019-03-20T06:58:11.734Z,73.30
2019-03-20T07:01:09.352Z,69.97
2019-03-20T07:03:47.814Z,74.55
2019-03-20T07:06:45.646Z,71.40
2019-03-20T07:09:30.511Z,80.83
2019-03-20T07:12:04.786Z,78.85
2019-03-20T07:14:37.777Z,79.03
2019-03-20T07:17:11.368Z,75.05
2019-03-20T07:19:45.074Z,78.02
2019-03-20T07:22:18.781Z,79.65
2019-03-20T07:24:52.097Z,82.88
2019-03-20T07:27:24.900Z,80.32
2019-03-20T07:29:57.925Z,81.87
2019-03-20T07:32:32.267Z,83.17
2019-03-20T07:35:05.262Z,81.05
2019-03-20T07:37:38.023Z,80.10
2019-03-20T07:40:11.536Z,81.00
2019-03-20T07:42:44.490Z,84.45
2019-03-20T07:45:17.229Z,81.87
2019-03-20T07:47:50.446Z,85.22
2019-03-20T07:50:23.195Z,85.97
2019-03-20T07:52:56.204Z,88.60
2019-03-20T07:55:29.793Z,87.88
2019-03-20T07:58:03.129Z,86.75
2019-03-20T08:00:36.056Z,88.40
2019-03-20T08:03:09.703Z,91.50
2019-03-20T08:05:42.452Z,87.50
2019-03-20T08:08:15.536Z,86.00
2019-03-20T08:10:48.717Z,88.07
2019-03-20T08:13:22.029Z,90.87
2019-03-20T08:15:55.333Z,88.17
2019-03-20T08:18:30.203Z,87.80
2019-03-20T08:21:08.791Z,87.47
2019-03-20T08:23:46.613Z,83.78
2019-03-20T08:26:25.481Z,83.45
2019-03-20T08:29:01.008Z,87.57
2019-03-20T08:31:35.899Z,87.53
2019-03-20T08:34:09.015Z,81.12
2019-03-20T08:36:42.887Z,83.92
2019-03-20T08:39:16.151Z,85.55
2019-03-20T08:44:51.129Z,86.32
2019-03-20T08:47:26.727Z,84.83
2019-03-20T08:50:01.571Z,82.30
2019-03-20T08:52:35.816Z,76.47
2019-03-20T08:55:10.903Z,81.30
2019-03-20T08:57:43.828Z,83.12
2019-03-20T09:00:19.557Z,90.17
2019-03-20T09:02:52.495Z,88.60
2019-03-20T09:05:25.321Z,84.17
2019-03-20T09:07:58.212Z,63.92
2019-03-20T09:10:31.453Z,84.10
2019-03-20T09:13:05.175Z,86.75
2019-03-20T09:15:43.246Z,78.75
2019-03-20T09:18:16.074Z,84.72
2019-03-20T09:20:49.947Z,79.82
2019-03-20T09:23:22.932Z,85.10
2019-03-20T09:25:56.339Z,74.15
2019-03-20T09:28:29.291Z,80.32
2019-03-20T09:31:02.281Z,82.53
2019-03-20T09:33:35.182Z,78.45
2019-03-20T09:36:08.252Z,79.27
2019-03-20T09:38:43.689Z,72.87
2019-03-20T09:41:16.012Z,75.10
2019-03-20T09:43:49.094Z,76.25
2019-03-20T09:46:22.803Z,76.75
2019-03-20T09:48:55.563Z,64.17
2019-03-20T09:51:29.132Z,31.95
2019-03-20T09:54:01.953Z,67.05
2019-03-20T09:56:35.574Z,66.15
2019-03-20T09:59:08.539Z,69.72
2019-03-20T10:01:41.809Z,70.22
2019-03-20T10:04:14.821Z,68.35
2019-03-20T10:06:48.233Z,69.90
2019-03-20T10:09:20.934Z,65.12
2019-03-20T10:11:54.527Z,63.05
2019-03-20T10:14:27.150Z,61.30
2019-03-20T10:17:00.294Z,60.03
2019-03-20T10:19:33.051Z,62.80
2019-03-20T10:22:09.259Z,64.42
2019-03-20T10:24:43.874Z,60.00
2019-03-20T10:27:19.298Z,60.08
2019-03-20T10:29:52.567Z,61.33
2019-03-20T10:32:26.019Z,57.23
2019-03-20T10:34:58.700Z,56.40
2019-03-20T10:37:31.693Z,56.40
2019-03-20T10:40:04.424Z,52.17
2019-03-20T10:42:37.436Z,52.00
2019-03-20T10:45:12.289Z,48.42
2019-03-20T10:47:45.716Z,47.98
2019-03-20T10:50:23.723Z,45.33
2019-03-20T10:52:56.997Z,48.25
2019-03-20T10:55:29.804Z,43.73
2019-03-20T10:58:02.820Z,45.55
2019-03-20T11:00:35.561Z,42.48
2019-03-20T11:03:09.099Z,44.30
2019-03-20T11:05:41.836Z,42.95
2019-03-20T11:08:15.476Z,43.35
2019-03-20T11:10:48.286Z,45.10
2019-03-20T11:13:21.212Z,41.15
2019-03-20T11:15:54.919Z,36.83
2019-03-20T11:18:29.416Z,45.03
2019-03-20T11:21:02.406Z,40.00
2019-03-20T11:23:55.118Z,44.70
2019-03-20T11:26:27.908Z,43.30
2019-03-20T11:29:00.659Z,38.33
2019-03-20T11:31:33.663Z,42.27
2019-03-20T11:34:06.801Z,42.85
2019-03-20T11:36:39.914Z,46.88
2019-03-20T11:39:12.733Z,40.73
2019-03-20T11:41:45.388Z,48.80
2019-03-20T11:44:18.548Z,49.95
2019-03-20T11:46:51.602Z,50.90
2019-03-20T11:49:24.308Z,50.90
2019-03-20T11:51:57.347Z,53.73
2019-03-20T11:54:30.208Z,51.65
2019-03-20T11:57:03.830Z,46.80
2019-03-20T11:59:36.881Z,48.13
2019-03-20T12:02:09.800Z,49.33
2019-03-20T12:04:43.372Z,49.50
2019-03-20T12:07:18.305Z,49.23
2019-03-20T12:09:52.028Z,47.98
2019-03-20T12:12:25.226Z,41.80
2019-03-20T12:14:58.034Z,45.67
2019-03-20T12:17:30.690Z,50.03
2019-03-20T12:20:03.703Z,48.20
2019-03-20T12:22:36.544Z,51.53
2019-03-20T12:25:18.034Z,61.20
2019-03-20T12:27:51.527Z,69.77
2019-03-20T12:30:38.303Z,39.00
2019-03-20T12:33:12.148Z,38.02
2019-03-20T12:35:46.928Z,42.78
2019-03-20T12:38:19.651Z,41.55
2019-03-20T12:40:53.070Z,43.15
2019-03-20T12:43:25.784Z,47.17
2019-03-20T12:45:59.253Z,44.40
2019-03-20T12:48:32.331Z,47.98
2019-03-20T12:51:05.508Z,48.68
2019-03-20T12:53:38.533Z,47.58
2019-03-20T12:56:12.815Z,47.83
2019-03-20T12:58:45.672Z,49.35
2019-03-20T13:01:18.764Z,51.30
2019-03-20T13:03:52.200Z,48.30
2019-03-20T13:06:30.391Z,52.65
2019-03-20T13:09:03.826Z,54.40
2019-03-20T13:11:37.247Z,52.45
2019-03-20T13:14:10.468Z,46.60
2019-03-20T13:16:43.623Z,49.60
2019-03-20T13:19:16.599Z,44.90
2019-03-20T13:21:49.820Z,48.10
2019-03-20T13:24:23.142Z,46.98
2019-03-20T13:26:56.300Z,58.15
2019-03-20T13:29:36.039Z,36.88
2019-03-20T13:32:09.070Z,44.45
2019-03-20T13:34:42.090Z,60.17
2019-03-20T13:37:15.447Z,41.42
2019-03-20T13:39:48.546Z,47.27
2019-03-20T13:42:21.512Z,44.03
2019-03-20T13:44:54.754Z,33.15
2019-03-20T13:47:31.711Z,45.52
2019-03-20T13:50:04.616Z,32.60
2019-03-20T13:52:37.454Z,36.85
2019-03-20T13:55:15.630Z,40.90
2019-03-20T13:57:49.264Z,31.40
2019-03-20T14:00:23.794Z,33.90
2019-03-20T14:02:56.685Z,11.75
2019-03-20T14:05:33.207Z,38.05
2019-03-20T14:08:06.265Z,30.52
2019-03-20T14:10:49.659Z,34.08
2019-03-20T14:13:13.250Z,38.95
2019-03-20T14:15:46.393Z,41.45
2019-03-20T14:18:19.460Z,41.23
2019-03-20T14:20:52.322Z,40.17
2019-03-20T14:23:25.327Z,42.50
2019-03-20T14:25:58.537Z,40.20
2019-03-20T14:28:31.695Z,40.03
2019-03-20T14:31:04.916Z,44.83
2019-03-20T14:33:38.129Z,43.40
2019-03-20T14:36:11.452Z,38.40
2019-03-20T14:38:44.785Z,38.50
2019-03-20T14:41:21.479Z,47.55
2019-03-20T14:43:53.069Z,40.23
2019-03-20T14:46:26.127Z,30.62
2019-03-20T14:48:59.075Z,31.77
2019-03-20T14:51:31.842Z,35.92
2019-03-20T14:54:04.810Z,41.25
2019-03-20T14:56:38.033Z,38.88
2019-03-20T14:59:10.783Z,41.23
2019-03-20T15:01:43.739Z,43.28
2019-03-20T15:04:16.767Z,39.92
2019-03-20T15:06:49.872Z,44.18
2019-03-20T15:09:22.867Z,40.08
2019-03-20T15:11:55.938Z,38.42
2019-03-20T15:14:28.780Z,37.55
2019-03-20T15:17:02.781Z,39.18
2019-03-20T15:19:35.424Z,36.40
2019-03-20T15:22:08.777Z,25.23
2019-03-20T15:24:41.894Z,22.42
2019-03-20T15:27:14.762Z,34.25
2019-03-20T15:29:48.527Z,34.70
2019-03-20T15:32:22.406Z,31.45
2019-03-20T15:34:55.848Z,28.02
2019-03-20T15:37:28.970Z,35.17
2019-03-20T15:40:01.931Z,33.33
2019-03-20T15:42:34.855Z,30.77
2019-03-20T15:45:10.280Z,34.58
2019-03-20T15:47:43.931Z,34.83
2019-03-20T15:50:24.675Z,19.02
2019-03-20T15:53:03.990Z,29.00
2019-03-20T15:55:39.548Z,28.85
2019-03-20T15:58:14.175Z,31.02
2019-03-20T16:00:47.772Z,31.30
2019-03-20T16:03:41.029Z,33.38
2019-03-20T16:06:15.957Z,29.48
2019-03-20T16:08:49.027Z,31.55
2019-03-20T16:11:22.416Z,33.15
2019-03-20T16:13:56.568Z,33.73
2019-03-20T16:16:30.283Z,21.70
2019-03-20T16:19:03.648Z,30.50
2019-03-20T16:21:36.643Z,27.52
2019-03-20T16:24:12.618Z,34.03
2019-03-20T16:26:45.792Z,31.62
2019-03-20T16:29:19.713Z,30.75
2019-03-20T16:31:55.418Z,22.70
2019-03-20T16:34:28.214Z,30.65
2019-03-20T16:37:04.107Z,36.15
2019-03-20T16:39:40.350Z,33.25
2019-03-20T16:42:16.203Z,33.98
2019-03-20T16:44:49.786Z,33.90
2019-03-20T16:47:23.407Z,28.55
2019-03-20T16:49:57.822Z,37.73
2019-03-20T16:52:30.821Z,38.20
2019-03-20T16:55:04.936Z,40.10
2019-03-20T16:57:38.258Z,45.38
2019-03-20T17:00:20.556Z,50.85
2019-03-20T17:02:53.426Z,39.48
2019-03-20T17:05:26.683Z,69.85
2019-03-20T17:08:00.644Z,80.90
2019-03-20T17:10:46.720Z,47.25
2019-03-20T17:13:21.890Z,66.92
2019-03-20T17:15:55.397Z,66.62
2019-03-20T17:18:28.343Z,46.60
2019-03-20T17:21:01.457Z,65.70
2019-03-20T17:23:34.502Z,46.45
2019-03-20T17:26:07.726Z,23.60
2019-03-20T17:28:41.418Z,39.27
2019-03-20T17:31:14.597Z,40.60
2019-03-20T17:33:47.667Z,39.48
2019-03-20T17:36:20.665Z,32.38
2019-03-20T17:38:54.830Z,36.58
2019-03-20T17:41:36.443Z,35.70
2019-03-20T17:44:02.954Z,25.77
2019-03-20T17:46:35.726Z,40.70
2019-03-20T17:49:08.991Z,40.33
2019-03-20T17:51:41.701Z,41.95
2019-03-20T17:54:14.912Z,40.00
2019-03-20T17:56:48.355Z,41.83
2019-03-20T17:59:21.433Z,41.10
2019-03-20T18:01:54.641Z,40.58
2019-03-20T18:04:28.226Z,38.15
2019-03-20T18:07:01.214Z,36.85
2019-03-20T18:09:34.258Z,42.40
2019-03-20T18:12:07.192Z,41.70
2019-03-20T18:14:40.575Z,42.75
2019-03-20T18:17:13.771Z,41.60
2019-03-20T18:19:46.841Z,41.33
2019-03-20T18:22:20.746Z,41.00
2019-03-20T18:24:54.423Z,41.42
2019-03-20T18:27:27.917Z,40.15
2019-03-20T18:30:01.422Z,36.00
2019-03-20T18:32:34.459Z,39.73
2019-03-20T18:35:09.294Z,40.60
2019-03-20T18:37:42.143Z,38.10
2019-03-20T18:40:16.785Z,37.63
2019-03-20T18:42:50.140Z,37.42
2019-03-20T18:45:23.941Z,39.85
2019-03-20T18:47:56.769Z,36.40
2019-03-20T18:50:29.775Z,40.60
2019-03-20T18:53:03.054Z,39.95
2019-03-20T18:55:36.102Z,35.75
2019-03-20T18:58:10.359Z,37.67
2019-03-20T19:00:43.686Z,41.80
2019-03-20T19:03:37.009Z,41.08
2019-03-20T19:06:14.295Z,39.50
2019-03-20T19:08:46.545Z,27.45
2019-03-20T19:11:19.782Z,40.95
2019-03-20T19:13:53.151Z,40.10
2019-03-20T19:16:26.129Z,43.15
2019-03-20T19:18:59.362Z,40.60
2019-03-20T19:21:32.685Z,42.88
2019-03-20T19:24:06.153Z,47.55
2019-03-20T19:26:39.028Z,47.75
2019-03-20T19:29:12.733Z,55.60
2019-03-20T19:31:46.227Z,46.68
2019-03-20T19:34:19.647Z,46.30
2019-03-20T19:36:53.131Z,44.00
2019-03-20T19:39:26.879Z,42.88
2019-03-20T19:42:00.432Z,45.23
2019-03-20T19:44:33.412Z,45.00
2019-03-20T19:47:06.786Z,42.50
2019-03-20T19:49:39.877Z,42.10
2019-03-20T19:52:13.267Z,45.43
2019-03-20T19:54:46.498Z,44.42
2019-03-20T19:57:20.446Z,41.58
2019-03-20T19:59:53.681Z,45.73
2019-03-20T20:02:27.108Z,39.95
2019-03-20T20:05:00.189Z,41.37
2019-03-20T20:07:33.385Z,28.73
2019-03-20T20:10:07.758Z,36.30
2019-03-20T20:12:41.317Z,38.67
2019-03-20T20:15:23.165Z,26.55
2019-03-20T20:17:56.467Z,40.25
2019-03-20T20:20:31.335Z,42.83
2019-03-20T20:23:04.508Z,38.10
2019-03-20T20:25:37.766Z,41.30
2019-03-20T20:28:11.584Z,33.70
2019-03-20T20:30:44.753Z,39.48
2019-03-20T20:33:18.036Z,40.60
2019-03-20T20:35:51.025Z,34.88
2019-03-20T20:38:23.922Z,38.85
2019-03-20T20:40:58.005Z,40.00
2019-03-20T20:43:31.813Z,38.98
2019-03-20T20:46:06.446Z,36.50
2019-03-20T20:48:39.965Z,39.50
2019-03-20T20:51:13.852Z,37.08
2019-03-20T20:53:47.097Z,40.98
2019-03-20T20:56:22.603Z,40.40
2019-03-20T20:58:56.307Z,39.88
2019-03-20T21:01:30.223Z,39.42
2019-03-20T21:04:03.499Z,34.58
2019-03-20T21:06:36.012Z,39.05
2019-03-20T21:09:10.038Z,39.73
2019-03-20T21:11:43.456Z,38.67
2019-03-20T21:14:16.784Z,38.73
2019-03-20T21:16:50.065Z,42.23
2019-03-20T21:19:36.510Z,35.95
2019-03-20T21:22:21.758Z,40.20
2019-03-20T21:24:54.516Z,38.25
2019-03-20T21:27:52.620Z,40.85
2019-03-20T21:30:52.563Z,40.23
2019-03-20T21:33:36.890Z,41.33
2019-03-20T21:36:35.347Z,39.70
2019-03-20T21:39:09.372Z,40.08
2019-03-20T21:41:53.666Z,40.92
2019-03-20T21:45:02.048Z,44.00
2019-03-20T21:47:37.315Z,41.02
2019-03-20T21:50:24.425Z,44.25
2019-03-20T21:52:58.743Z,43.20
2019-03-20T21:55:50.877Z,43.87
2019-03-20T22:01:24.191Z,46.33
2019-03-20T22:03:57.475Z,43.85
2019-03-20T22:07:07.161Z,42.62
2019-03-20T22:09:54.859Z,41.80
2019-03-20T22:12:54.349Z,44.60
2019-03-20T22:15:35.763Z,45.10
2019-03-20T22:18:33.336Z,42.20
2019-03-20T22:21:24.031Z,44.83
2019-03-20T22:24:16.463Z,43.25
2019-03-20T22:27:24.143Z,41.50
2019-03-20T22:29:57.205Z,45.52
2019-03-20T22:32:35.945Z,43.92
2019-03-20T22:35:30.884Z,45.08
2019-03-20T22:38:05.350Z,44.30
2019-03-20T22:41:15.841Z,46.80
2019-03-20T22:43:51.429Z,49.10
2019-03-20T22:46:42.246Z,45.90
2019-03-20T22:49:27.628Z,45.85
2019-03-20T22:52:09.097Z,46.13
2019-03-20T22:54:56.225Z,47.90
2019-03-20T22:58:03.725Z,43.70
2019-03-20T23:00:37.123Z,44.95
2019-03-20T23:03:35.184Z,48.95
2019-03-20T23:06:09.412Z,48.25
2019-03-20T23:08:42.721Z,50.78
2019-03-20T23:11:15.874Z,52.17
2019-03-20T23:13:49.258Z,50.05
2019-03-20T23:16:23.247Z,51.42
2019-03-20T23:18:57.290Z,53.70
2019-03-20T23:21:30.601Z,47.25
2019-03-20T23:24:03.375Z,52.13
2019-03-20T23:26:36.550Z,46.00
2019-03-20T23:29:09.439Z,54.93
2019-03-20T23:31:42.979Z,50.48
2019-03-20T23:34:16.741Z,47.10
2019-03-20T23:36:52.236Z,53.58
2019-03-20T23:39:26.093Z,52.70
2019-03-20T23:41:59.741Z,47.43
2019-03-20T23:44:33.056Z,50.65
2019-03-20T23:47:07.513Z,43.75
2019-03-20T23:49:40.656Z,47.35
2019-03-20T23:52:13.807Z,50.23
2019-03-20T23:54:47.731Z,46.18
2019-03-20T23:57:20.884Z,40.05
2019-03-20T23:59:54.052Z,49.33
